sensor_id;sensor_type;location;lat;lon;timestamp;P1;durP1;ratioP1;P2;durP2;ratioP2
54795;SDS011;40693;43.884;20.340;2022-07-29T00:02:25;8.18;;;6.47;;
54795;SDS011;40693;43.884;20.340;2022-07-29T00:04:51;8.23;;;6.45;;
54795;SDS011;40693;43.884;20.340;2022-07-29T00:07:17;6.80;;;5.60;;
54795;SDS011;40693;43.884;20.340;2022-07-29T00:09:43;7.15;;;5.85;;
54795;SDS011;40693;43.884;20.340;2022-07-29T00:12:08;11.65;;;5.97;;
54795;SDS011;40693;43.884;20.340;2022-07-29T00:14:34;9.73;;;6.18;;
54795;SDS011;40693;43.884;20.340;2022-07-29T00:17:00;9.23;;;5.82;;
54795;SDS011;40693;43.884;20.340;2022-07-29T00:19:26;9.93;;;6.68;;
54795;SDS011;40693;43.884;20.340;2022-07-29T00:21:52;9.75;;;7.05;;
54795;SDS011;40693;43.884;20.340;2022-07-29T00:24:17;11.90;;;6.50;;
54795;SDS011;40693;43.884;20.340;2022-07-29T00:26:43;10.20;;;6.60;;
54795;SDS011;40693;43.884;20.340;2022-07-29T00:29:09;10.85;;;6.10;;
54795;SDS011;40693;43.884;20.340;2022-07-29T00:31:35;10.30;;;6.05;;
54795;SDS011;40693;43.884;20.340;2022-07-29T00:34:01;9.30;;;5.95;;
54795;SDS011;40693;43.884;20.340;2022-07-29T00:36:28;8.32;;;6.43;;
54795;SDS011;40693;43.884;20.340;2022-07-29T00:38:53;11.98;;;6.75;;
54795;SDS011;40693;43.884;20.340;2022-07-29T00:41:19;9.13;;;6.15;;
54795;SDS011;40693;43.884;20.340;2022-07-29T00:43:45;10.20;;;6.88;;
54795;SDS011;40693;43.884;20.340;2022-07-29T00:46:11;12.10;;;6.75;;
54795;SDS011;40693;43.884;20.340;2022-07-29T00:48:37;7.97;;;6.65;;
54795;SDS011;40693;43.884;20.340;2022-07-29T00:51:04;7.85;;;6.53;;
54795;SDS011;40693;43.884;20.340;2022-07-29T00:53:31;11.27;;;6.78;;
54795;SDS011;40693;43.884;20.340;2022-07-29T00:55:57;8.88;;;6.50;;
54795;SDS011;40693;43.884;20.340;2022-07-29T00:58:24;6.38;;;5.57;;
54795;SDS011;40693;43.884;20.340;2022-07-29T01:00:51;16.67;;;6.93;;
54795;SDS011;40693;43.884;20.340;2022-07-29T01:03:17;7.68;;;6.13;;
54795;SDS011;40693;43.884;20.340;2022-07-29T01:05:44;8.65;;;7.10;;
54795;SDS011;40693;43.884;20.340;2022-07-29T01:08:11;12.63;;;7.40;;
54795;SDS011;40693;43.884;20.340;2022-07-29T01:10:38;9.93;;;7.10;;
54795;SDS011;40693;43.884;20.340;2022-07-29T01:13:05;9.35;;;7.40;;
54795;SDS011;40693;43.884;20.340;2022-07-29T01:15:33;8.52;;;7.25;;
54795;SDS011;40693;43.884;20.340;2022-07-29T01:29:03;10.30;;;6.57;;
54795;SDS011;40693;43.884;20.340;2022-07-29T01:31:42;8.57;;;6.80;;
54795;SDS011;40693;43.884;20.340;2022-07-29T01:34:21;12.10;;;7.97;;
54795;SDS011;40693;43.884;20.340;2022-07-29T01:36:58;10.80;;;6.95;;
54795;SDS011;40693;43.884;20.340;2022-07-29T01:39:37;11.95;;;8.70;;
54795;SDS011;40693;43.884;20.340;2022-07-29T01:45:03;11.68;;;7.95;;
54795;SDS011;40693;43.884;20.340;2022-07-29T01:47:31;8.75;;;7.85;;
54795;SDS011;40693;43.884;20.340;2022-07-29T01:50:05;11.63;;;7.38;;
54795;SDS011;40693;43.884;20.340;2022-07-29T01:52:39;12.80;;;7.65;;
54795;SDS011;40693;43.884;20.340;2022-07-29T01:55:11;10.40;;;7.90;;
54795;SDS011;40693;43.884;20.340;2022-07-29T02:00:07;7.97;;;6.95;;
54795;SDS011;40693;43.884;20.340;2022-07-29T02:02:33;12.20;;;7.65;;
54795;SDS011;40693;43.884;20.340;2022-07-29T02:05:02;11.48;;;6.82;;
54795;SDS011;40693;43.884;20.340;2022-07-29T02:07:31;13.13;;;7.20;;
54795;SDS011;40693;43.884;20.340;2022-07-29T02:09:59;10.35;;;7.95;;
54795;SDS011;40693;43.884;20.340;2022-07-29T02:12:27;8.52;;;6.82;;
54795;SDS011;40693;43.884;20.340;2022-07-29T02:14:54;9.70;;;7.88;;
54795;SDS011;40693;43.884;20.340;2022-07-29T02:17:25;9.73;;;7.38;;
54795;SDS011;40693;43.884;20.340;2022-07-29T02:19:57;9.68;;;7.28;;
54795;SDS011;40693;43.884;20.340;2022-07-29T02:22:27;8.32;;;7.00;;
54795;SDS011;40693;43.884;20.340;2022-07-29T02:24:55;10.55;;;7.70;;
54795;SDS011;40693;43.884;20.340;2022-07-29T02:27:22;13.02;;;8.00;;
54795;SDS011;40693;43.884;20.340;2022-07-29T02:29:49;8.52;;;7.28;;
54795;SDS011;40693;43.884;20.340;2022-07-29T02:32:18;8.57;;;7.28;;
54795;SDS011;40693;43.884;20.340;2022-07-29T02:34:46;11.13;;;8.05;;
54795;SDS011;40693;43.884;20.340;2022-07-29T02:37:13;9.75;;;8.00;;
54795;SDS011;40693;43.884;20.340;2022-07-29T02:39:42;9.82;;;8.18;;
54795;SDS011;40693;43.884;20.340;2022-07-29T02:42:11;9.88;;;8.27;;
54795;SDS011;40693;43.884;20.340;2022-07-29T02:44:39;9.63;;;8.10;;
54795;SDS011;40693;43.884;20.340;2022-07-29T02:50:06;9.68;;;7.85;;
54795;SDS011;40693;43.884;20.340;2022-07-29T02:52:41;10.40;;;7.38;;
54795;SDS011;40693;43.884;20.340;2022-07-29T02:55:26;10.95;;;8.45;;
54795;SDS011;40693;43.884;20.340;2022-07-29T03:00:51;10.50;;;7.20;;
54795;SDS011;40693;43.884;20.340;2022-07-29T03:03:18;13.48;;;7.78;;
54795;SDS011;40693;43.884;20.340;2022-07-29T03:05:45;11.85;;;8.68;;
54795;SDS011;40693;43.884;20.340;2022-07-29T03:08:11;9.80;;;7.65;;
54795;SDS011;40693;43.884;20.340;2022-07-29T03:10:42;10.60;;;7.72;;
54795;SDS011;40693;43.884;20.340;2022-07-29T03:13:10;11.20;;;7.88;;
54795;SDS011;40693;43.884;20.340;2022-07-29T03:15:38;9.45;;;8.45;;
54795;SDS011;40693;43.884;20.340;2022-07-29T03:18:05;11.90;;;8.75;;
54795;SDS011;40693;43.884;20.340;2022-07-29T03:20:31;11.68;;;8.48;;
54795;SDS011;40693;43.884;20.340;2022-07-29T03:22:57;9.88;;;8.88;;
54795;SDS011;40693;43.884;20.340;2022-07-29T03:25:23;13.80;;;9.30;;
54795;SDS011;40693;43.884;20.340;2022-07-29T03:27:49;13.52;;;8.80;;
54795;SDS011;40693;43.884;20.340;2022-07-29T03:30:14;11.02;;;8.05;;
54795;SDS011;40693;43.884;20.340;2022-07-29T03:32:41;14.30;;;9.40;;
54795;SDS011;40693;43.884;20.340;2022-07-29T03:35:07;10.70;;;8.43;;
54795;SDS011;40693;43.884;20.340;2022-07-29T03:37:33;9.80;;;8.00;;
54795;SDS011;40693;43.884;20.340;2022-07-29T03:40:01;12.05;;;8.48;;
54795;SDS011;40693;43.884;20.340;2022-07-29T03:42:33;10.02;;;8.77;;
54795;SDS011;40693;43.884;20.340;2022-07-29T03:45:04;11.57;;;9.32;;
54795;SDS011;40693;43.884;20.340;2022-07-29T03:47:32;13.85;;;9.60;;
54795;SDS011;40693;43.884;20.340;2022-07-29T03:50:05;10.80;;;9.15;;
54795;SDS011;40693;43.884;20.340;2022-07-29T03:52:32;11.85;;;8.88;;
54795;SDS011;40693;43.884;20.340;2022-07-29T03:54:58;14.20;;;8.82;;
54795;SDS011;40693;43.884;20.340;2022-07-29T03:57:25;13.95;;;9.27;;
54795;SDS011;40693;43.884;20.340;2022-07-29T03:59:53;12.85;;;8.93;;
54795;SDS011;40693;43.884;20.340;2022-07-29T04:02:20;14.05;;;9.23;;
54795;SDS011;40693;43.884;20.340;2022-07-29T04:04:46;16.05;;;9.65;;
54795;SDS011;40693;43.884;20.340;2022-07-29T04:07:12;11.85;;;9.52;;
54795;SDS011;40693;43.884;20.340;2022-07-29T04:09:38;10.82;;;8.95;;
54795;SDS011;40693;43.884;20.340;2022-07-29T04:12:04;11.23;;;9.75;;
54795;SDS011;40693;43.884;20.340;2022-07-29T04:14:31;14.50;;;9.55;;
54795;SDS011;40693;43.884;20.340;2022-07-29T04:16:58;14.13;;;9.48;;
54795;SDS011;40693;43.884;20.340;2022-07-29T04:19:25;13.07;;;9.73;;
54795;SDS011;40693;43.884;20.340;2022-07-29T04:21:51;14.88;;;9.80;;
54795;SDS011;40693;43.884;20.340;2022-07-29T04:24:16;12.27;;;9.18;;
54795;SDS011;40693;43.884;20.340;2022-07-29T04:26:42;13.80;;;10.40;;
54795;SDS011;40693;43.884;20.340;2022-07-29T04:29:10;12.13;;;9.02;;
54795;SDS011;40693;43.884;20.340;2022-07-29T04:31:37;13.52;;;9.63;;
54795;SDS011;40693;43.884;20.340;2022-07-29T04:34:03;13.32;;;9.95;;
54795;SDS011;40693;43.884;20.340;2022-07-29T04:36:29;14.30;;;9.68;;
54795;SDS011;40693;43.884;20.340;2022-07-29T04:38:54;13.73;;;10.30;;
54795;SDS011;40693;43.884;20.340;2022-07-29T04:41:22;13.02;;;10.18;;
54795;SDS011;40693;43.884;20.340;2022-07-29T04:43:48;11.50;;;10.23;;
54795;SDS011;40693;43.884;20.340;2022-07-29T04:46:14;13.98;;;10.95;;
54795;SDS011;40693;43.884;20.340;2022-07-29T04:48:40;14.70;;;10.35;;
54795;SDS011;40693;43.884;20.340;2022-07-29T04:51:06;10.70;;;9.57;;
54795;SDS011;40693;43.884;20.340;2022-07-29T04:53:32;12.10;;;9.85;;
54795;SDS011;40693;43.884;20.340;2022-07-29T04:55:57;12.23;;;10.00;;
54795;SDS011;40693;43.884;20.340;2022-07-29T04:58:23;11.45;;;9.57;;
54795;SDS011;40693;43.884;20.340;2022-07-29T05:00:49;12.13;;;8.98;;
54795;SDS011;40693;43.884;20.340;2022-07-29T05:03:16;13.77;;;10.10;;
54795;SDS011;40693;43.884;20.340;2022-07-29T05:05:42;15.13;;;10.68;;
54795;SDS011;40693;43.884;20.340;2022-07-29T05:08:08;11.55;;;9.32;;
54795;SDS011;40693;43.884;20.340;2022-07-29T05:10:34;15.18;;;9.50;;
54795;SDS011;40693;43.884;20.340;2022-07-29T05:13:03;12.50;;;10.27;;
54795;SDS011;40693;43.884;20.340;2022-07-29T05:15:31;13.20;;;9.77;;
54795;SDS011;40693;43.884;20.340;2022-07-29T05:17:56;16.00;;;10.48;;
54795;SDS011;40693;43.884;20.340;2022-07-29T05:20:22;13.25;;;10.13;;
54795;SDS011;40693;43.884;20.340;2022-07-29T05:22:53;12.82;;;9.10;;
54795;SDS011;40693;43.884;20.340;2022-07-29T05:25:22;11.65;;;9.23;;
54795;SDS011;40693;43.884;20.340;2022-07-29T05:27:49;13.93;;;10.65;;
54795;SDS011;40693;43.884;20.340;2022-07-29T05:30:14;13.48;;;10.00;;
54795;SDS011;40693;43.884;20.340;2022-07-29T05:32:40;16.08;;;10.52;;
54795;SDS011;40693;43.884;20.340;2022-07-29T05:35:06;13.52;;;11.23;;
54795;SDS011;40693;43.884;20.340;2022-07-29T05:37:32;15.38;;;12.32;;
54795;SDS011;40693;43.884;20.340;2022-07-29T05:39:58;11.82;;;10.60;;
54795;SDS011;40693;43.884;20.340;2022-07-29T05:42:24;14.30;;;9.60;;
54795;SDS011;40693;43.884;20.340;2022-07-29T05:44:51;16.77;;;10.57;;
54795;SDS011;40693;43.884;20.340;2022-07-29T05:47:17;11.38;;;10.13;;
54795;SDS011;40693;43.884;20.340;2022-07-29T05:49:42;15.25;;;10.30;;
54795;SDS011;40693;43.884;20.340;2022-07-29T05:52:08;14.85;;;9.48;;
54795;SDS011;40693;43.884;20.340;2022-07-29T05:54:34;13.05;;;10.38;;
54795;SDS011;40693;43.884;20.340;2022-07-29T05:57:00;12.68;;;10.27;;
54795;SDS011;40693;43.884;20.340;2022-07-29T05:59:28;13.15;;;9.63;;
54795;SDS011;40693;43.884;20.340;2022-07-29T06:01:54;15.65;;;10.82;;
54795;SDS011;40693;43.884;20.340;2022-07-29T06:04:19;11.98;;;9.50;;
54795;SDS011;40693;43.884;20.340;2022-07-29T06:06:45;14.10;;;10.52;;
54795;SDS011;40693;43.884;20.340;2022-07-29T06:09:11;16.05;;;10.75;;
54795;SDS011;40693;43.884;20.340;2022-07-29T06:11:37;13.88;;;10.52;;
54795;SDS011;40693;43.884;20.340;2022-07-29T06:14:02;19.55;;;10.70;;
54795;SDS011;40693;43.884;20.340;2022-07-29T06:16:28;15.77;;;10.38;;
54795;SDS011;40693;43.884;20.340;2022-07-29T06:18:54;17.17;;;10.70;;
54795;SDS011;40693;43.884;20.340;2022-07-29T06:21:20;14.93;;;9.90;;
54795;SDS011;40693;43.884;20.340;2022-07-29T06:23:46;15.27;;;9.82;;
54795;SDS011;40693;43.884;20.340;2022-07-29T06:26:11;16.00;;;9.85;;
54795;SDS011;40693;43.884;20.340;2022-07-29T06:28:38;13.32;;;9.43;;
54795;SDS011;40693;43.884;20.340;2022-07-29T06:31:04;11.65;;;8.80;;
54795;SDS011;40693;43.884;20.340;2022-07-29T06:33:30;11.10;;;9.02;;
54795;SDS011;40693;43.884;20.340;2022-07-29T06:35:56;12.88;;;9.48;;
54795;SDS011;40693;43.884;20.340;2022-07-29T06:38:22;10.57;;;8.00;;
54795;SDS011;40693;43.884;20.340;2022-07-29T06:40:48;12.73;;;9.07;;
54795;SDS011;40693;43.884;20.340;2022-07-29T06:43:26;10.90;;;8.70;;
54795;SDS011;40693;43.884;20.340;2022-07-29T06:46:05;10.95;;;8.20;;
54795;SDS011;40693;43.884;20.340;2022-07-29T06:48:34;16.30;;;8.88;;
54795;SDS011;40693;43.884;20.340;2022-07-29T06:51:01;13.07;;;8.45;;
54795;SDS011;40693;43.884;20.340;2022-07-29T06:53:27;17.90;;;10.70;;
54795;SDS011;40693;43.884;20.340;2022-07-29T06:55:54;15.93;;;9.80;;
54795;SDS011;40693;43.884;20.340;2022-07-29T06:58:19;15.23;;;8.85;;
54795;SDS011;40693;43.884;20.340;2022-07-29T07:00:48;14.98;;;10.68;;
54795;SDS011;40693;43.884;20.340;2022-07-29T07:03:15;13.07;;;9.50;;
54795;SDS011;40693;43.884;20.340;2022-07-29T07:05:45;12.60;;;9.98;;
54795;SDS011;40693;43.884;20.340;2022-07-29T07:08:11;15.82;;;8.85;;
54795;SDS011;40693;43.884;20.340;2022-07-29T07:10:38;14.45;;;9.32;;
54795;SDS011;40693;43.884;20.340;2022-07-29T07:13:05;10.65;;;9.02;;
54795;SDS011;40693;43.884;20.340;2022-07-29T07:15:31;10.05;;;8.23;;
54795;SDS011;40693;43.884;20.340;2022-07-29T07:17:57;12.75;;;9.93;;
54795;SDS011;40693;43.884;20.340;2022-07-29T07:20:23;11.20;;;9.05;;
54795;SDS011;40693;43.884;20.340;2022-07-29T07:22:49;10.80;;;8.05;;
54795;SDS011;40693;43.884;20.340;2022-07-29T07:25:15;10.98;;;9.23;;
54795;SDS011;40693;43.884;20.340;2022-07-29T07:27:42;13.30;;;8.52;;
54795;SDS011;40693;43.884;20.340;2022-07-29T07:30:09;15.25;;;8.82;;
54795;SDS011;40693;43.884;20.340;2022-07-29T07:32:35;12.55;;;8.55;;
54795;SDS011;40693;43.884;20.340;2022-07-29T07:35:02;10.30;;;8.55;;
54795;SDS011;40693;43.884;20.340;2022-07-29T07:37:31;12.43;;;8.13;;
54795;SDS011;40693;43.884;20.340;2022-07-29T07:39:57;14.32;;;9.00;;
54795;SDS011;40693;43.884;20.340;2022-07-29T07:42:23;14.75;;;8.38;;
54795;SDS011;40693;43.884;20.340;2022-07-29T07:44:49;13.88;;;8.55;;
54795;SDS011;40693;43.884;20.340;2022-07-29T07:47:15;13.07;;;8.88;;
54795;SDS011;40693;43.884;20.340;2022-07-29T07:49:49;12.43;;;7.88;;
54795;SDS011;40693;43.884;20.340;2022-07-29T07:52:16;11.15;;;7.85;;
54795;SDS011;40693;43.884;20.340;2022-07-29T07:54:42;11.15;;;7.35;;
54795;SDS011;40693;43.884;20.340;2022-07-29T07:57:10;13.38;;;8.73;;
54795;SDS011;40693;43.884;20.340;2022-07-29T07:59:36;11.70;;;6.65;;
54795;SDS011;40693;43.884;20.340;2022-07-29T08:02:02;10.32;;;8.93;;
54795;SDS011;40693;43.884;20.340;2022-07-29T08:04:28;14.43;;;9.25;;
54795;SDS011;40693;43.884;20.340;2022-07-29T08:06:54;13.27;;;8.80;;
54795;SDS011;40693;43.884;20.340;2022-07-29T08:09:20;12.80;;;8.85;;
54795;SDS011;40693;43.884;20.340;2022-07-29T08:11:46;10.38;;;8.75;;
54795;SDS011;40693;43.884;20.340;2022-07-29T08:14:12;14.88;;;8.00;;
54795;SDS011;40693;43.884;20.340;2022-07-29T08:16:38;12.68;;;8.48;;
54795;SDS011;40693;43.884;20.340;2022-07-29T08:19:08;10.95;;;8.45;;
54795;SDS011;40693;43.884;20.340;2022-07-29T08:21:34;10.55;;;8.55;;
54795;SDS011;40693;43.884;20.340;2022-07-29T08:24:00;10.68;;;7.97;;
54795;SDS011;40693;43.884;20.340;2022-07-29T08:26:44;12.00;;;8.55;;
54795;SDS011;40693;43.884;20.340;2022-07-29T08:29:10;14.95;;;9.23;;
54795;SDS011;40693;43.884;20.340;2022-07-29T08:31:36;11.38;;;7.93;;
54795;SDS011;40693;43.884;20.340;2022-07-29T08:34:03;14.93;;;9.77;;
54795;SDS011;40693;43.884;20.340;2022-07-29T08:36:30;12.60;;;8.00;;
54795;SDS011;40693;43.884;20.340;2022-07-29T08:38:56;13.10;;;8.82;;
54795;SDS011;40693;43.884;20.340;2022-07-29T08:41:22;10.32;;;8.60;;
54795;SDS011;40693;43.884;20.340;2022-07-29T08:43:49;16.33;;;7.93;;
54795;SDS011;40693;43.884;20.340;2022-07-29T08:46:16;11.50;;;8.32;;
54795;SDS011;40693;43.884;20.340;2022-07-29T08:48:42;9.52;;;7.63;;
54795;SDS011;40693;43.884;20.340;2022-07-29T08:51:08;12.48;;;7.82;;
54795;SDS011;40693;43.884;20.340;2022-07-29T08:53:42;7.78;;;6.97;;
54795;SDS011;40693;43.884;20.340;2022-07-29T08:56:13;8.43;;;6.65;;
54795;SDS011;40693;43.884;20.340;2022-07-29T08:58:41;11.53;;;7.47;;
54795;SDS011;40693;43.884;20.340;2022-07-29T09:01:07;11.05;;;8.85;;
54795;SDS011;40693;43.884;20.340;2022-07-29T09:03:36;7.85;;;6.88;;
54795;SDS011;40693;43.884;20.340;2022-07-29T09:06:03;9.45;;;7.20;;
54795;SDS011;40693;43.884;20.340;2022-07-29T09:08:33;10.02;;;7.20;;
54795;SDS011;40693;43.884;20.340;2022-07-29T09:11:00;9.15;;;7.13;;
54795;SDS011;40693;43.884;20.340;2022-07-29T09:13:26;7.68;;;6.65;;
54795;SDS011;40693;43.884;20.340;2022-07-29T09:15:52;15.23;;;6.95;;
54795;SDS011;40693;43.884;20.340;2022-07-29T09:21:00;10.98;;;7.43;;
54795;SDS011;40693;43.884;20.340;2022-07-29T09:24:27;9.25;;;6.40;;
54795;SDS011;40693;43.884;20.340;2022-07-29T09:26:40;11.35;;;7.30;;
54795;SDS011;40693;43.884;20.340;2022-07-29T09:29:10;12.05;;;7.32;;
54795;SDS011;40693;43.884;20.340;2022-07-29T09:31:52;7.50;;;6.68;;
54795;SDS011;40693;43.884;20.340;2022-07-29T09:34:28;8.25;;;7.45;;
54795;SDS011;40693;43.884;20.340;2022-07-29T09:36:56;8.65;;;6.30;;
54795;SDS011;40693;43.884;20.340;2022-07-29T09:39:38;6.53;;;5.95;;
54795;SDS011;40693;43.884;20.340;2022-07-29T09:42:10;9.98;;;6.38;;
54795;SDS011;40693;43.884;20.340;2022-07-29T09:44:45;9.52;;;5.68;;
54795;SDS011;40693;43.884;20.340;2022-07-29T09:47:13;8.43;;;5.20;;
54795;SDS011;40693;43.884;20.340;2022-07-29T09:49:50;6.93;;;5.95;;
54795;SDS011;40693;43.884;20.340;2022-07-29T09:52:22;6.85;;;6.15;;
54795;SDS011;40693;43.884;20.340;2022-07-29T09:54:49;8.85;;;6.60;;
54795;SDS011;40693;43.884;20.340;2022-07-29T09:57:25;6.72;;;6.10;;
54795;SDS011;40693;43.884;20.340;2022-07-29T09:59:56;7.82;;;6.40;;
54795;SDS011;40693;43.884;20.340;2022-07-29T10:02:30;7.85;;;6.18;;
54795;SDS011;40693;43.884;20.340;2022-07-29T10:04:57;7.88;;;6.80;;
54795;SDS011;40693;43.884;20.340;2022-07-29T10:07:24;7.53;;;6.35;;
54795;SDS011;40693;43.884;20.340;2022-07-29T10:09:52;6.97;;;5.63;;
54795;SDS011;40693;43.884;20.340;2022-07-29T10:12:22;7.78;;;7.05;;
54795;SDS011;40693;43.884;20.340;2022-07-29T10:14:48;7.47;;;5.88;;
54795;SDS011;40693;43.884;20.340;2022-07-29T10:17:14;7.28;;;6.47;;
54795;SDS011;40693;43.884;20.340;2022-07-29T10:19:41;10.23;;;5.85;;
54795;SDS011;40693;43.884;20.340;2022-07-29T10:22:08;8.27;;;6.88;;
54795;SDS011;40693;43.884;20.340;2022-07-29T10:24:35;10.52;;;6.18;;
54795;SDS011;40693;43.884;20.340;2022-07-29T10:27:03;7.85;;;5.85;;
54795;SDS011;40693;43.884;20.340;2022-07-29T10:29:31;8.15;;;6.68;;
54795;SDS011;40693;43.884;20.340;2022-07-29T10:39:55;11.23;;;6.78;;
54795;SDS011;40693;43.884;20.340;2022-07-29T10:42:25;11.50;;;7.20;;
54795;SDS011;40693;43.884;20.340;2022-07-29T10:44:54;7.30;;;6.25;;
54795;SDS011;40693;43.884;20.340;2022-07-29T10:47:23;9.13;;;6.35;;
54795;SDS011;40693;43.884;20.340;2022-07-29T10:50:00;11.18;;;7.05;;
54795;SDS011;40693;43.884;20.340;2022-07-29T10:55:36;8.15;;;6.65;;
54795;SDS011;40693;43.884;20.340;2022-07-29T10:58:11;10.60;;;6.85;;
54795;SDS011;40693;43.884;20.340;2022-07-29T11:00:42;8.73;;;6.93;;
54795;SDS011;40693;43.884;20.340;2022-07-29T11:03:08;7.75;;;6.45;;
54795;SDS011;40693;43.884;20.340;2022-07-29T11:05:53;10.27;;;7.38;;
54795;SDS011;40693;43.884;20.340;2022-07-29T11:08:21;9.38;;;6.60;;
54795;SDS011;40693;43.884;20.340;2022-07-29T11:10:49;6.90;;;6.07;;
54795;SDS011;40693;43.884;20.340;2022-07-29T11:16:11;7.30;;;6.60;;
54795;SDS011;40693;43.884;20.340;2022-07-29T11:21:45;8.98;;;6.72;;
54795;SDS011;40693;43.884;20.340;2022-07-29T11:24:19;9.25;;;6.82;;
54795;SDS011;40693;43.884;20.340;2022-07-29T11:29:48;8.10;;;6.45;;
54795;SDS011;40693;43.884;20.340;2022-07-29T11:32:22;9.07;;;6.50;;
54795;SDS011;40693;43.884;20.340;2022-07-29T11:43:45;9.57;;;5.78;;
54795;SDS011;40693;43.884;20.340;2022-07-29T11:46:11;12.55;;;6.97;;
54795;SDS011;40693;43.884;20.340;2022-07-29T11:48:40;8.23;;;6.25;;
54795;SDS011;40693;43.884;20.340;2022-07-29T11:51:10;7.40;;;6.10;;
54795;SDS011;40693;43.884;20.340;2022-07-29T11:53:37;7.05;;;6.22;;
54795;SDS011;40693;43.884;20.340;2022-07-29T11:56:04;9.65;;;6.45;;
54795;SDS011;40693;43.884;20.340;2022-07-29T11:58:34;8.20;;;6.18;;
54795;SDS011;40693;43.884;20.340;2022-07-29T12:01:00;7.70;;;6.18;;
54795;SDS011;40693;43.884;20.340;2022-07-29T12:03:27;7.85;;;5.95;;
54795;SDS011;40693;43.884;20.340;2022-07-29T12:05:53;6.20;;;5.60;;
54795;SDS011;40693;43.884;20.340;2022-07-29T12:08:20;8.15;;;6.22;;
54795;SDS011;40693;43.884;20.340;2022-07-29T12:10:47;8.60;;;6.70;;
54795;SDS011;40693;43.884;20.340;2022-07-29T12:13:16;6.63;;;5.95;;
54795;SDS011;40693;43.884;20.340;2022-07-29T12:15:51;10.30;;;6.35;;
54795;SDS011;40693;43.884;20.340;2022-07-29T12:18:18;8.07;;;6.75;;
54795;SDS011;40693;43.884;20.340;2022-07-29T12:20:45;7.15;;;6.45;;
54795;SDS011;40693;43.884;20.340;2022-07-29T12:23:13;8.82;;;6.60;;
54795;SDS011;40693;43.884;20.340;2022-07-29T12:25:40;6.93;;;5.40;;
54795;SDS011;40693;43.884;20.340;2022-07-29T12:28:09;8.60;;;5.78;;
54795;SDS011;40693;43.884;20.340;2022-07-29T12:30:44;7.90;;;5.60;;
54795;SDS011;40693;43.884;20.340;2022-07-29T12:33:14;6.85;;;6.03;;
54795;SDS011;40693;43.884;20.340;2022-07-29T12:35:45;7.50;;;5.93;;
54795;SDS011;40693;43.884;20.340;2022-07-29T12:38:13;7.13;;;5.18;;
54795;SDS011;40693;43.884;20.340;2022-07-29T12:40:39;6.32;;;5.72;;
54795;SDS011;40693;43.884;20.340;2022-07-29T12:43:08;8.35;;;5.30;;
54795;SDS011;40693;43.884;20.340;2022-07-29T12:45:39;10.57;;;6.50;;
54795;SDS011;40693;43.884;20.340;2022-07-29T12:48:08;9.70;;;5.63;;
54795;SDS011;40693;43.884;20.340;2022-07-29T12:50:35;9.45;;;6.22;;
54795;SDS011;40693;43.884;20.340;2022-07-29T12:53:11;8.00;;;6.20;;
54795;SDS011;40693;43.884;20.340;2022-07-29T12:55:42;6.38;;;5.53;;
54795;SDS011;40693;43.884;20.340;2022-07-29T12:58:13;6.97;;;5.30;;
54795;SDS011;40693;43.884;20.340;2022-07-29T13:00:58;8.82;;;6.05;;
54795;SDS011;40693;43.884;20.340;2022-07-29T13:03:27;6.55;;;5.10;;
54795;SDS011;40693;43.884;20.340;2022-07-29T13:05:54;8.85;;;5.70;;
54795;SDS011;40693;43.884;20.340;2022-07-29T13:08:19;8.50;;;6.35;;
54795;SDS011;40693;43.884;20.340;2022-07-29T13:10:45;7.13;;;5.68;;
54795;SDS011;40693;43.884;20.340;2022-07-29T13:13:14;7.20;;;5.97;;
54795;SDS011;40693;43.884;20.340;2022-07-29T13:15:41;8.93;;;5.75;;
54795;SDS011;40693;43.884;20.340;2022-07-29T13:20:54;7.75;;;6.20;;
54795;SDS011;40693;43.884;20.340;2022-07-29T13:23:21;7.78;;;6.28;;
54795;SDS011;40693;43.884;20.340;2022-07-29T13:25:47;6.85;;;6.15;;
54795;SDS011;40693;43.884;20.340;2022-07-29T13:28:13;9.10;;;6.00;;
54795;SDS011;40693;43.884;20.340;2022-07-29T13:30:39;6.72;;;5.68;;
54795;SDS011;40693;43.884;20.340;2022-07-29T13:33:05;6.13;;;5.57;;
54795;SDS011;40693;43.884;20.340;2022-07-29T13:35:31;8.85;;;6.30;;
54795;SDS011;40693;43.884;20.340;2022-07-29T13:37:57;6.97;;;6.18;;
54795;SDS011;40693;43.884;20.340;2022-07-29T13:40:23;6.35;;;5.55;;
54795;SDS011;40693;43.884;20.340;2022-07-29T13:42:49;10.75;;;6.13;;
54795;SDS011;40693;43.884;20.340;2022-07-29T13:45:15;6.63;;;5.93;;
54795;SDS011;40693;43.884;20.340;2022-07-29T13:47:41;7.25;;;5.72;;
54795;SDS011;40693;43.884;20.340;2022-07-29T13:50:07;6.72;;;5.88;;
54795;SDS011;40693;43.884;20.340;2022-07-29T13:52:35;8.15;;;6.00;;
54795;SDS011;40693;43.884;20.340;2022-07-29T13:55:02;7.72;;;5.82;;
54795;SDS011;40693;43.884;20.340;2022-07-29T13:57:29;7.10;;;6.30;;
54795;SDS011;40693;43.884;20.340;2022-07-29T13:59:55;7.20;;;6.15;;
54795;SDS011;40693;43.884;20.340;2022-07-29T14:02:21;9.13;;;5.88;;
54795;SDS011;40693;43.884;20.340;2022-07-29T14:04:47;6.30;;;5.45;;
54795;SDS011;40693;43.884;20.340;2022-07-29T14:07:13;7.10;;;6.32;;
54795;SDS011;40693;43.884;20.340;2022-07-29T14:09:39;6.72;;;5.32;;
54795;SDS011;40693;43.884;20.340;2022-07-29T14:12:04;6.07;;;5.25;;
54795;SDS011;40693;43.884;20.340;2022-07-29T14:14:30;6.70;;;5.15;;
54795;SDS011;40693;43.884;20.340;2022-07-29T14:16:57;7.65;;;5.70;;
54795;SDS011;40693;43.884;20.340;2022-07-29T14:19:23;7.18;;;6.03;;
54795;SDS011;40693;43.884;20.340;2022-07-29T14:21:49;6.18;;;5.57;;
54795;SDS011;40693;43.884;20.340;2022-07-29T14:24:15;7.35;;;5.65;;
54795;SDS011;40693;43.884;20.340;2022-07-29T14:26:41;6.82;;;5.45;;
54795;SDS011;40693;43.884;20.340;2022-07-29T14:29:06;7.95;;;5.28;;
54795;SDS011;40693;43.884;20.340;2022-07-29T14:31:32;7.32;;;5.95;;
54795;SDS011;40693;43.884;20.340;2022-07-29T14:33:58;9.57;;;5.80;;
54795;SDS011;40693;43.884;20.340;2022-07-29T14:36:23;7.72;;;5.88;;
54795;SDS011;40693;43.884;20.340;2022-07-29T14:38:49;6.95;;;5.85;;
54795;SDS011;40693;43.884;20.340;2022-07-29T14:41:15;5.93;;;5.35;;
54795;SDS011;40693;43.884;20.340;2022-07-29T14:43:41;11.90;;;6.03;;
54795;SDS011;40693;43.884;20.340;2022-07-29T14:46:06;8.80;;;5.60;;
54795;SDS011;40693;43.884;20.340;2022-07-29T14:48:32;9.38;;;5.97;;
54795;SDS011;40693;43.884;20.340;2022-07-29T14:50:58;6.88;;;4.95;;
54795;SDS011;40693;43.884;20.340;2022-07-29T14:53:24;7.18;;;5.97;;
54795;SDS011;40693;43.884;20.340;2022-07-29T14:55:50;10.30;;;5.85;;
54795;SDS011;40693;43.884;20.340;2022-07-29T14:58:16;7.03;;;5.07;;
54795;SDS011;40693;43.884;20.340;2022-07-29T15:00:42;5.80;;;5.20;;
54795;SDS011;40693;43.884;20.340;2022-07-29T15:03:07;6.72;;;5.72;;
54795;SDS011;40693;43.884;20.340;2022-07-29T15:05:36;6.10;;;5.50;;
54795;SDS011;40693;43.884;20.340;2022-07-29T15:08:01;5.85;;;5.32;;
54795;SDS011;40693;43.884;20.340;2022-07-29T15:10:28;6.90;;;5.57;;
54795;SDS011;40693;43.884;20.340;2022-07-29T15:12:54;5.93;;;5.32;;
54795;SDS011;40693;43.884;20.340;2022-07-29T15:15:20;8.35;;;5.75;;
54795;SDS011;40693;43.884;20.340;2022-07-29T15:17:46;7.20;;;5.78;;
54795;SDS011;40693;43.884;20.340;2022-07-29T15:20:12;7.85;;;5.90;;
54795;SDS011;40693;43.884;20.340;2022-07-29T15:22:38;6.03;;;5.20;;
54795;SDS011;40693;43.884;20.340;2022-07-29T15:25:06;8.13;;;5.60;;
54795;SDS011;40693;43.884;20.340;2022-07-29T15:27:32;7.45;;;6.28;;